Time;durP1;ratioP1;P1;durP2;ratioP2;P2;SDS_P1;SDS_P2;PMS_P1;PMS_P2;Temp;Humidity;BMP_temperature;BMP_pressure;BME280_temperature;BME280_humidity;BME280_pressure;Samples;Min_cycle;Max_cycle;Signal;HPM_P1;HPM_P2
2021/12/11 00:01:02;;;;;;;23.15;10.43;;;-0.20;99.90;;;;;;5048583;28;20423;-77
2021/12/11 00:03:31;;;;;;;21.10;10.98;;;-0.30;99.90;;;;;;5050799;28;20089;-77
2021/12/11 00:06:04;;;;;;;26.92;11.80;;;-0.40;99.90;;;;;;5050560;28;20433;-77
2021/12/11 00:08:34;;;;;;;27.35;12.88;;;-0.40;99.90;;;;;;5048992;28;20025;-77
2021/12/11 00:11:07;;;;;;;25.58;11.77;;;-0.40;99.90;;;;;;5044690;28;20059;-77
2021/12/11 00:13:38;;;;;;;26.23;12.82;;;-0.40;99.90;;;;;;5031472;28;20053;-77
2021/12/11 00:16:06;;;;;;;22.08;11.48;;;-0.40;99.90;;;;;;5036334;28;20378;-77
2021/12/11 00:18:32;;;;;;;31.52;13.45;;;-0.40;99.90;;;;;;5048746;28;20104;-78
2021/12/11 00:21:15;;;;;;;30.00;13.32;;;-0.40;99.90;;;;;;5045973;28;20581;-76
2021/12/11 00:23:43;;;;;;;33.05;13.35;;;-0.40;99.90;;;;;;5046686;28;20506;-77
2021/12/11 00:26:12;;;;;;;29.33;13.80;;;-0.40;99.90;;;;;;5042282;28;20045;-77
2021/12/11 00:28:49;;;;;;;28.52;12.30;;;-0.40;99.90;;;;;;5044383;28;20063;-77
2021/12/11 00:31:16;;;;;;;28.95;13.23;;;-0.40;99.90;;;;;;5046628;28;20029;-77
2021/12/11 00:33:42;;;;;;;33.58;12.15;;;-0.40;99.90;;;;;;5048869;28;20087;-77
2021/12/11 00:36:11;;;;;;;29.05;13.23;;;-0.30;99.90;;;;;;5043355;28;20029;-77
2021/12/11 00:38:37;;;;;;;27.38;13.45;;;-0.30;99.90;;;;;;5046678;28;20483;-77
2021/12/11 00:41:07;;;;;;;29.17;12.82;;;-0.30;99.90;;;;;;5048134;28;20037;-77
2021/12/11 00:43:35;;;;;;;29.27;13.95;;;-0.20;99.90;;;;;;5048335;28;20452;-77
2021/12/11 00:46:04;;;;;;;30.42;12.55;;;-0.20;99.90;;;;;;5033637;28;20379;-77
2021/12/11 00:48:30;;;;;;;30.90;12.55;;;-0.20;99.90;;;;;;5044742;28;20071;-77
2021/12/11 00:50:59;;;;;;;29.58;14.48;;;-0.20;99.90;;;;;;5047108;28;20077;-77
2021/12/11 00:53:30;;;;;;;31.20;13.63;;;-0.20;99.90;;;;;;5049903;28;20488;-77
2021/12/11 00:56:00;;;;;;;33.03;15.05;;;-0.20;99.90;;;;;;5048398;28;20032;-77
2021/12/11 00:58:30;;;;;;;29.80;14.02;;;-0.10;99.90;;;;;;5048485;28;20028;-77
2021/12/11 01:01:00;;;;;;;33.90;14.90;;;-0.10;99.90;;;;;;5050509;28;20025;-77
2021/12/11 01:03:28;;;;;;;21.55;10.02;;;-0.10;99.90;;;;;;5046568;28;20029;-77
2021/12/11 01:05:56;;;;;;;23.65;11.65;;;-0.10;99.90;;;;;;5047303;28;20162;-77
2021/12/11 01:08:32;;;;;;;26.77;13.35;;;-0.20;99.90;;;;;;5047753;28;20029;-77
2021/12/11 01:11:05;;;;;;;30.83;13.02;;;-0.20;99.90;;;;;;5049976;28;20036;-77
2021/12/11 01:13:37;;;;;;;30.98;13.60;;;-0.20;99.90;;;;;;5049299;28;20028;-77
2021/12/11 01:16:12;;;;;;;31.55;14.27;;;-0.30;99.90;;;;;;5049202;28;20478;-77
2021/12/11 01:18:41;;;;;;;30.13;14.80;;;-0.30;99.90;;;;;;5043107;28;20029;-77
2021/12/11 01:26:33;;;;;;;36.47;16.67;;;-0.20;99.90;;;;;;5044526;28;20761;-77
2021/12/11 01:29:01;;;;;;;29.23;15.15;;;-0.10;99.90;;;;;;5049979;28;20068;-78
2021/12/11 01:31:27;;;;;;;33.15;15.68;;;-0.10;99.90;;;;;;5050711;28;20033;-77
2021/12/11 01:33:54;;;;;;;32.00;15.18;;;-0.10;99.90;;;;;;5050856;28;20034;-77
2021/12/11 01:36:20;;;;;;;23.40;13.10;;;-0.10;99.90;;;;;;5050092;28;20025;-77
2021/12/11 01:38:47;;;;;;;26.63;12.52;;;-0.10;99.90;;;;;;5051205;28;20035;-77
2021/12/11 01:41:19;;;;;;;24.40;12.00;;;-0.10;99.90;;;;;;5047599;28;20025;-77
2021/12/11 01:43:50;;;;;;;21.60;11.23;;;-0.20;99.90;;;;;;5053690;28;20079;-77
2021/12/11 01:46:21;;;;;;;25.90;12.65;;;-0.20;99.90;;;;;;5033809;28;20037;-77
2021/12/11 01:48:53;;;;;;;32.03;14.27;;;-0.30;99.90;;;;;;5050654;28;20379;-77
2021/12/11 01:51:29;;;;;;;26.85;12.38;;;-0.30;99.90;;;;;;5047906;28;20056;-77
2021/12/11 01:54:03;;;;;;;29.70;13.85;;;-0.30;99.90;;;;;;5053027;28;20459;-77
2021/12/11 01:56:32;;;;;;;33.40;15.82;;;-0.30;99.90;;;;;;5049909;28;20067;-77
2021/12/11 01:59:07;;;;;;;30.35;14.38;;;-0.30;99.90;;;;;;5050019;28;20025;-77
2021/12/11 02:01:39;;;;;;;32.65;13.55;;;-0.30;99.90;;;;;;5039686;28;20036;-77
2021/12/11 02:04:07;;;;;;;25.23;13.43;;;-0.30;99.90;;;;;;5053852;28;20036;-77
2021/12/11 02:06:36;;;;;;;27.30;13.45;;;-0.30;99.90;;;;;;5045739;28;20028;-77
2021/12/11 02:09:18;;;;;;;32.05;14.13;;;-0.40;99.90;;;;;;5044434;28;20033;-77
2021/12/11 02:11:49;;;;;;;29.13;15.88;;;-0.30;99.90;;;;;;5038672;28;20017;-77
2021/12/11 02:14:22;;;;;;;32.72;14.32;;;-0.30;99.90;;;;;;5045948;28;20044;-77
2021/12/11 02:16:49;;;;;;;31.83;14.73;;;-0.30;99.90;;;;;;5051129;28;20032;-76
2021/12/11 02:19:29;;;;;;;36.70;16.52;;;-0.30;99.90;;;;;;5051172;28;20033;-76
2021/12/11 02:22:22;;;;;;;34.38;15.75;;;-0.30;99.90;;;;;;5041824;28;20016;-77
2021/12/11 02:24:55;;;;;;;27.88;13.00;;;-0.30;99.90;;;;;;5050343;28;20021;-77
2021/12/11 02:27:26;;;;;;;35.88;14.65;;;-0.30;99.90;;;;;;5046536;28;20029;-77
2021/12/11 02:30:03;;;;;;;29.92;15.02;;;-0.30;99.90;;;;;;5049585;28;20128;-76
2021/12/11 02:32:39;;;;;;;29.42;14.20;;;-0.30;99.90;;;;;;5047964;28;20021;-77
2021/12/11 02:35:34;;;;;;;36.65;14.65;;;-0.40;99.90;;;;;;5042277;28;20025;-77
2021/12/11 02:38:23;;;;;;;33.88;15.43;;;-0.40;99.90;;;;;;5038702;28;20033;-77
2021/12/11 02:40:55;;;;;;;34.80;14.98;;;-0.40;99.90;;;;;;5050287;28;20129;-77
2021/12/11 02:43:28;;;;;;;39.05;15.70;;;-0.40;99.90;;;;;;5050151;28;20043;-77
2021/12/11 02:46:29;;;;;;;28.25;13.60;;;-0.40;99.90;;;;;;5049273;28;20025;-76
2021/12/11 02:49:03;;;;;;;25.63;11.32;;;-0.40;99.90;;;;;;5032436;28;20033;-77
2021/12/11 02:52:09;;;;;;;25.13;11.57;;;-0.50;99.90;;;;;;5035798;28;20129;-77
2021/12/11 02:54:46;;;;;;;32.35;11.82;;;-0.50;99.90;;;;;;5039468;28;20038;-77
2021/12/11 02:57:31;;;;;;;28.88;13.48;;;-0.60;99.90;;;;;;5047799;28;20036;-76
2021/12/11 03:00:16;;;;;;;26.45;12.27;;;-0.60;99.90;;;;;;5049970;28;20041;-76
2021/12/11 03:02:48;;;;;;;25.20;12.20;;;-0.60;99.90;;;;;;5049902;28;20025;-77
2021/12/11 03:05:17;;;;;;;33.30;13.13;;;-0.50;99.90;;;;;;5036826;28;20033;-77
2021/12/11 03:07:50;;;;;;;32.42;13.73;;;-0.50;99.90;;;;;;5035341;28;20033;-77
2021/12/11 03:10:18;;;;;;;48.25;16.77;;;-0.40;99.90;;;;;;5049499;28;20028;-77
2021/12/11 03:12:44;;;;;;;45.17;16.05;;;-0.30;99.90;;;;;;5042282;28;20034;-76
2021/12/11 03:15:11;;;;;;;76.07;18.10;;;-0.20;99.90;;;;;;5046290;28;20025;-77
2021/12/11 03:17:38;;;;;;;59.10;16.52;;;-0.10;99.90;;;;;;5043446;28;20041;-77
2021/12/11 03:20:07;;;;;;;71.35;17.45;;;-0.10;99.90;;;;;;5050205;28;20433;-77
2021/12/11 03:22:34;;;;;;;55.25;16.60;;;0.00;99.90;;;;;;5045476;28;20131;-77
2021/12/11 03:25:05;;;;;;;56.00;17.73;;;0.00;99.90;;;;;;5045099;28;20026;-77
2021/12/11 03:27:30;;;;;;;80.10;20.15;;;0.10;99.90;;;;;;5038750;28;20041;-77
2021/12/11 03:29:56;;;;;;;72.00;19.00;;;0.10;99.90;;;;;;5050451;28;20072;-77
2021/12/11 03:32:22;;;;;;;95.30;20.02;;;0.20;99.90;;;;;;5040574;28;20037;-76
2021/12/11 03:34:49;;;;;;;114.90;21.67;;;0.20;99.90;;;;;;5050572;28;20037;-76
2021/12/11 03:37:19;;;;;;;113.80;21.08;;;0.30;99.90;;;;;;5048741;28;20025;-77
2021/12/11 03:39:50;;;;;;;121.55;20.38;;;0.30;99.90;;;;;;5050634;28;20111;-77
2021/12/11 03:42:22;;;;;;;91.13;20.70;;;0.30;99.90;;;;;;5045849;28;20116;-77
2021/12/11 03:44:49;;;;;;;;;;;0.40;99.90;;;;;;5047494;28;20025;-77
2021/12/11 03:47:30;;;;;;;50.08;17.13;;;0.40;99.90;;;;;;5049205;28;20003;-77
2021/12/11 03:49:56;;;;;;;100.78;20.42;;;0.40;99.90;;;;;;5050538;28;20021;-77
2021/12/11 03:52:22;;;;;;;106.30;20.02;;;0.40;99.90;;;;;;5047580;28;20094;-77
2021/12/11 03:54:50;;;;;;;100.82;19.65;;;0.40;99.90;;;;;;5042615;28;20101;-77
2021/12/11 03:57:19;;;;;;;129.38;20.85;;;0.40;99.90;;;;;;5049753;28;20032;-77
2021/12/11 03:59:48;;;;;;;93.43;19.15;;;0.40;99.90;;;;;;5049434;28;20494;-77
2021/12/11 04:02:18;;;;;;;99.55;20.50;;;0.40;99.90;;;;;;5045954;28;20052;-77
2021/12/11 04:05:03;;;;;;;95.85;19.52;;;0.40;99.90;;;;;;5047922;28;20063;-77
2021/12/11 04:07:33;;;;;;;99.65;19.27;;;0.40;99.90;;;;;;5049200;28;20051;-77
2021/12/11 04:09:59;;;;;;;165.45;21.70;;;0.40;99.90;;;;;;5048699;28;20037;-77
2021/12/11 04:12:26;;;;;;;196.88;24.52;;;0.40;99.90;;;;;;5043877;28;20441;-77
2021/12/11 04:14:55;;;;;;;103.95;19.95;;;0.40;99.90;;;;;;5040084;28;20058;-77
2021/12/11 04:17:23;;;;;;;109.10;20.20;;;0.40;99.90;;;;;;5041222;28;20021;-77
2021/12/11 04:19:57;;;;;;;74.78;19.45;;;0.40;99.90;;;;;;5044228;28;20471;-77
2021/12/11 04:22:24;;;;;;;79.30;21.10;;;0.40;99.90;;;;;;5042471;28;20029;-77
2021/12/11 04:24:50;;;;;;;96.47;23.83;;;0.40;99.90;;;;;;5049610;28;20059;-77
2021/12/11 04:27:19;;;;;;;97.22;24.23;;;0.40;99.90;;;;;;5041328;28;20087;-77
2021/12/11 04:29:49;;;;;;;116.72;23.10;;;0.50;99.90;;;;;;5043459;28;20032;-77
2021/12/11 04:32:17;;;;;;;112.40;33.80;;;0.50;99.90;;;;;;5050199;28;20032;-77
2021/12/11 04:34:44;;;;;;;107.75;26.65;;;0.50;99.90;;;;;;5047630;28;20087;-77
2021/12/11 04:37:16;;;;;;;71.72;23.35;;;0.50;99.90;;;;;;5044159;28;20040;-77
2021/12/11 04:39:46;;;;;;;91.55;23.85;;;0.60;99.90;;;;;;5049503;28;20029;-77
2021/12/11 04:42:32;;;;;;;86.20;24.88;;;0.60;99.90;;;;;;5046834;28;20029;-76
2021/12/11 04:44:58;;;;;;;72.13;21.63;;;0.60;99.90;;;;;;5048092;28;20029;-77
2021/12/11 04:50:01;;;;;;;78.43;22.63;;;0.70;99.90;;;;;;5042767;28;20061;-77
2021/12/11 04:52:51;;;;;;;62.92;22.35;;;0.70;99.90;;;;;;5046888;28;20048;-77
2021/12/11 05:00:38;;;;;;;60.95;21.83;;;0.90;99.90;;;;;;5052139;28;20390;-77
2021/12/11 05:08:36;;;;;;;458.15;38.45;;;1.10;99.90;;;;;;5053753;28;20086;-76
2021/12/11 05:11:02;;;;;;;131.32;28.30;;;1.10;99.90;;;;;;5054105;28;20043;-77
2021/12/11 05:13:29;;;;;;;116.18;26.75;;;1.10;99.90;;;;;;5049577;28;20030;-76
2021/12/11 05:16:02;;;;;;;446.90;40.35;;;1.20;99.90;;;;;;5049223;28;20387;-76
2021/12/11 05:18:32;;;;;;;73.22;24.33;;;1.20;99.90;;;;;;5052669;28;20082;-76
2021/12/11 05:21:05;;;;;;;191.45;30.75;;;1.20;99.90;;;;;;5050648;28;20082;-76
2021/12/11 05:23:31;;;;;;;75.40;25.90;;;1.20;99.90;;;;;;5051146;28;20037;-76
2021/12/11 05:25:57;;;;;;;66.55;25.83;;;1.20;99.90;;;;;;5050389;28;20040;-76
2021/12/11 05:28:24;;;;;;;72.00;26.23;;;1.20;99.90;;;;;;5051259;28;20040;-76
2021/12/11 05:30:53;;;;;;;108.55;31.25;;;1.20;99.90;;;;;;5049470;28;20060;-76
2021/12/11 05:33:20;;;;;;;70.30;26.45;;;1.30;99.90;;;;;;5052070;28;20037;-77
2021/12/11 05:35:47;;;;;;;68.70;24.35;;;1.30;99.90;;;;;;5041745;28;20029;-76
2021/12/11 05:38:15;;;;;;;99.72;28.35;;;1.30;99.90;;;;;;5048011;28;20379;-76
2021/12/11 05:40:47;;;;;;;104.82;27.48;;;1.30;99.90;;;;;;5043860;28;20394;-76
2021/12/11 05:43:15;;;;;;;81.13;25.83;;;1.30;99.90;;;;;;5038763;28;20044;-76
2021/12/11 05:45:41;;;;;;;85.93;28.63;;;1.40;99.90;;;;;;5036175;28;20479;-76
2021/12/11 05:48:08;;;;;;;75.97;26.40;;;1.40;99.90;;;;;;5044643;28;20048;-76
2021/12/11 05:50:37;;;;;;;84.47;28.25;;;1.40;99.90;;;;;;5044519;28;20059;-76
2021/12/11 05:53:04;;;;;;;78.00;26.75;;;1.40;99.90;;;;;;5044201;28;20025;-76
2021/12/11 05:55:31;;;;;;;78.93;27.42;;;1.50;99.90;;;;;;5050946;28;20029;-76
2021/12/11 05:58:00;;;;;;;83.72;28.02;;;1.50;99.90;;;;;;5045564;28;20035;-75
2021/12/11 06:00:40;;;;;;;74.57;26.88;;;1.50;99.90;;;;;;5052105;28;20025;-76
2021/12/11 06:03:06;;;;;;;71.75;24.77;;;1.50;99.90;;;;;;5052774;28;20028;-76
2021/12/11 06:05:32;;;;;;;87.65;27.52;;;1.50;99.90;;;;;;5042346;28;20045;-76
2021/12/11 06:07:58;;;;;;;119.50;32.45;;;1.60;99.90;;;;;;5049701;28;20414;-76
2021/12/11 06:10:25;;;;;;;93.35;30.05;;;1.60;99.90;;;;;;5050767;28;20033;-76
2021/12/11 06:12:52;;;;;;;94.95;29.20;;;1.60;99.90;;;;;;5045837;28;20036;-76
2021/12/11 06:15:18;;;;;;;101.95;31.15;;;1.60;99.90;;;;;;5050639;28;20029;-76
2021/12/11 06:17:46;;;;;;;96.80;30.73;;;1.70;99.90;;;;;;5051622;28;20278;-76
2021/12/11 06:20:15;;;;;;;105.50;31.35;;;1.70;99.90;;;;;;5051364;28;20033;-75
2021/12/11 06:22:41;;;;;;;87.00;29.20;;;1.70;99.90;;;;;;5052447;28;20029;-76
2021/12/11 06:25:12;;;;;;;100.32;32.13;;;1.70;99.90;;;;;;5047327;28;20055;-76
2021/12/11 06:27:39;;;;;;;100.25;30.58;;;1.70;99.90;;;;;;5051891;28;20111;-75
2021/12/11 06:30:06;;;;;;;93.05;31.42;;;1.70;99.90;;;;;;5040720;28;20021;-75
2021/12/11 06:32:31;;;;;;;98.90;31.67;;;1.70;99.90;;;;;;5049837;28;20040;-75
2021/12/11 06:34:59;;;;;;;105.07;33.92;;;1.70;99.90;;;;;;5044116;28;20017;-75
2021/12/11 06:37:25;;;;;;;101.95;32.53;;;1.80;99.90;;;;;;5032758;28;20399;-75
2021/12/11 06:39:52;;;;;;;96.50;31.17;;;1.80;99.90;;;;;;5049165;28;20029;-75
2021/12/11 06:42:18;;;;;;;109.55;31.65;;;1.80;99.90;;;;;;5044950;28;20024;-75
2021/12/11 06:44:46;;;;;;;85.22;30.25;;;1.80;99.90;;;;;;5047340;28;20066;-75
2021/12/11 06:47:14;;;;;;;100.10;31.88;;;1.90;99.90;;;;;;5057982;28;20029;-74
2021/12/11 06:49:41;;;;;;;98.85;31.58;;;1.90;99.90;;;;;;5047332;28;20029;-75
2021/12/11 06:52:11;;;;;;;90.10;31.30;;;1.90;99.90;;;;;;5047403;28;20072;-74
2021/12/11 06:54:37;;;;;;;102.85;30.08;;;1.90;99.90;;;;;;5044675;28;20033;-75
2021/12/11 06:57:03;;;;;;;74.38;26.02;;;2.00;99.90;;;;;;5050471;28;20040;-75
2021/12/11 06:59:29;;;;;;;86.25;30.17;;;2.00;99.90;;;;;;5049700;28;20412;-75
2021/12/11 07:01:55;;;;;;;88.25;29.83;;;2.00;99.90;;;;;;5050727;28;20103;-75
2021/12/11 07:04:20;;;;;;;96.35;31.73;;;2.00;99.90;;;;;;5047194;28;20485;-75
2021/12/11 07:06:50;;;;;;;101.05;30.77;;;2.10;99.90;;;;;;5052182;28;20033;-74
2021/12/11 07:09:16;;;;;;;96.22;31.25;;;2.10;99.90;;;;;;5046519;28;20035;-74
2021/12/11 07:11:44;;;;;;;96.97;31.80;;;2.10;99.90;;;;;;5050524;28;20036;-74
2021/12/11 07:14:11;;;;;;;100.38;29.25;;;2.10;99.90;;;;;;5035545;28;20029;-73
2021/12/11 07:16:37;;;;;;;93.72;30.30;;;2.10;99.90;;;;;;5038889;28;20033;-73
2021/12/11 07:19:05;;;;;;;88.63;30.20;;;2.10;99.90;;;;;;5049218;28;20082;-72
2021/12/11 07:21:30;;;;;;;102.30;31.25;;;2.10;99.90;;;;;;5046253;28;20047;-73
2021/12/11 07:23:56;;;;;;;83.68;29.45;;;2.10;99.90;;;;;;5044980;28;20467;-73
2021/12/11 07:26:31;;;;;;;114.00;31.25;;;2.10;99.90;;;;;;5047613;28;20086;-73
2021/12/11 07:29:07;;;;;;;82.15;28.90;;;2.10;99.90;;;;;;5045133;28;20029;-73
2021/12/11 07:31:34;;;;;;;83.72;29.98;;;2.10;99.90;;;;;;5042482;28;20484;-74
2021/12/11 07:34:00;;;;;;;92.50;29.13;;;2.10;99.90;;;;;;5041006;28;20032;-74
2021/12/11 07:36:27;;;;;;;239.23;40.25;;;2.10;99.90;;;;;;5049501;28;20029;-75
2021/12/11 07:38:53;;;;;;;189.27;35.92;;;2.10;99.90;;;;;;5049364;28;20478;-74
2021/12/11 07:41:19;;;;;;;150.50;33.15;;;2.10;99.90;;;;;;5045060;28;20276;-73
2021/12/11 07:43:46;;;;;;;105.50;30.30;;;2.20;99.90;;;;;;5051262;28;20029;-73
2021/12/11 07:46:16;;;;;;;100.95;31.92;;;2.20;99.90;;;;;;5051424;28;20383;-72
2021/12/11 07:48:43;;;;;;;88.07;30.45;;;2.20;99.90;;;;;;5051428;28;20116;-73
2021/12/11 07:51:10;;;;;;;91.45;31.02;;;2.20;99.90;;;;;;5049325;28;20041;-74
2021/12/11 07:53:36;;;;;;;93.13;31.67;;;2.30;99.90;;;;;;5046321;28;20479;-73
2021/12/11 07:56:02;;;;;;;93.25;32.03;;;2.30;99.90;;;;;;5050115;28;20037;-73
2021/12/11 07:58:32;;;;;;;94.72;32.15;;;2.30;99.90;;;;;;5050231;28;20025;-73
2021/12/11 08:00:58;;;;;;;71.75;26.35;;;2.30;99.90;;;;;;5045653;28;20096;-73
2021/12/11 08:03:23;;;;;;;93.00;30.35;;;2.30;99.90;;;;;;5049117;28;20156;-73
2021/12/11 08:05:50;;;;;;;88.97;29.25;;;2.40;99.90;;;;;;5043929;28;20367;-74
2021/12/11 08:08:16;;;;;;;92.93;31.38;;;2.40;99.90;;;;;;5036112;28;20383;-74
2021/12/11 08:10:45;;;;;;;93.10;31.60;;;2.50;99.90;;;;;;5034463;28;20386;-74
2021/12/11 08:13:12;;;;;;;93.22;31.85;;;2.50;99.90;;;;;;5049381;28;20379;-74
2021/12/11 08:15:39;;;;;;;81.25;29.55;;;2.50;99.90;;;;;;5049775;28;20037;-74
2021/12/11 08:18:07;;;;;;;86.05;30.95;;;2.60;99.90;;;;;;5048554;28;20078;-74
2021/12/11 08:20:37;;;;;;;92.95;32.60;;;2.60;99.90;;;;;;5044755;28;20032;-74
2021/12/11 08:23:03;;;;;;;118.97;31.10;;;2.60;99.90;;;;;;5045107;28;20028;-74
2021/12/11 08:25:33;;;;;;;85.20;30.55;;;2.70;99.90;;;;;;5040754;28;20025;-74
2021/12/11 08:27:59;;;;;;;84.07;29.98;;;2.70;99.90;;;;;;5047003;28;20029;-72
2021/12/11 08:30:28;;;;;;;75.45;28.42;;;2.70;99.90;;;;;;5048616;28;20100;-74
2021/12/11 08:32:54;;;;;;;75.72;29.15;;;2.80;99.90;;;;;;5044403;28;20557;-74
2021/12/11 08:35:20;;;;;;;87.93;29.70;;;2.80;99.90;;;;;;5038488;28;20040;-75
2021/12/11 08:37:49;;;;;;;68.68;26.88;;;2.80;99.90;;;;;;5049526;28;20017;-74
2021/12/11 08:40:19;;;;;;;75.20;26.27;;;2.90;99.90;;;;;;5049800;28;20075;-74
2021/12/11 08:42:46;;;;;;;69.40;27.80;;;2.90;99.90;;;;;;5049160;28;20025;-74
2021/12/11 08:45:21;;;;;;;62.13;23.13;;;2.90;99.90;;;;;;5049322;28;20029;-72
2021/12/11 08:47:49;;;;;;;78.93;29.50;;;2.90;99.90;;;;;;5045117;28;20029;-73
2021/12/11 08:50:19;;;;;;;70.45;28.25;;;2.90;99.90;;;;;;5047420;28;20036;-73
2021/12/11 08:52:49;;;;;;;70.75;26.60;;;3.00;99.90;;;;;;5045928;28;20132;-74
2021/12/11 08:55:20;;;;;;;69.40;28.40;;;2.90;99.90;;;;;;5044987;28;20021;-73
2021/12/11 08:57:46;;;;;;;76.72;30.08;;;3.00;99.90;;;;;;5045079;28;20025;-74
2021/12/11 09:00:17;;;;;;;68.32;27.95;;;3.00;99.90;;;;;;5047736;28;20472;-74
2021/12/11 09:02:56;;;;;;;67.30;27.25;;;3.00;99.90;;;;;;5047535;28;20035;-74
2021/12/11 09:05:29;;;;;;;68.60;28.13;;;3.00;99.90;;;;;;5048717;28;20112;-74
2021/12/11 09:08:12;;;;;;;65.60;27.23;;;3.10;99.90;;;;;;5051089;28;20068;-74
2021/12/11 09:10:45;;;;;;;;;;;3.10;99.90;;;;;;5064231;28;20030;-72
2021/12/11 09:13:25;;;;;;;72.65;26.17;;;3.20;99.90;;;;;;5053027;28;20317;-72
2021/12/11 09:15:59;;;;;;;71.13;26.50;;;3.20;99.90;;;;;;5050320;28;20025;-73
2021/12/11 09:18:30;;;;;;;81.93;29.35;;;3.20;99.90;;;;;;5048983;28;20100;-73
2021/12/11 09:21:11;;;;;;;72.90;28.80;;;3.30;99.90;;;;;;5049651;28;20021;-74
2021/12/11 09:23:47;;;;;;;71.88;28.98;;;3.40;99.90;;;;;;5044893;28;20100;-74
2021/12/11 09:26:20;;;;;;;70.70;27.70;;;3.40;99.90;;;;;;5045254;28;20037;-74
2021/12/11 09:29:00;;;;;;;74.00;28.50;;;3.50;99.90;;;;;;5045409;28;20028;-74
2021/12/11 09:31:28;;;;;;;67.03;27.30;;;3.60;99.90;;;;;;5051895;28;20113;-74
2021/12/11 09:34:14;;;;;;;70.75;27.48;;;3.60;99.90;;;;;;5046407;28;20020;-73
2021/12/11 09:36:42;;;;;;;71.50;28.88;;;3.60;99.90;;;;;;5052064;28;20975;-74
2021/12/11 09:39:16;;;;;;;73.05;29.48;;;3.60;99.90;;;;;;5052019;28;20097;-73
2021/12/11 09:41:41;;;;;;;69.38;29.15;;;3.70;99.90;;;;;;5052932;28;20124;-74
2021/12/11 09:44:11;;;;;;;67.03;29.38;;;3.70;99.90;;;;;;5048055;28;20108;-74
2021/12/11 09:46:50;;;;;;;74.32;30.52;;;3.80;99.90;;;;;;5041409;28;22662;-74
2021/12/11 09:49:27;;;;;;;69.22;29.40;;;3.80;99.90;;;;;;5048441;28;20028;-74
2021/12/11 09:52:03;;;;;;;68.55;29.50;;;3.80;99.90;;;;;;5052527;28;20107;-75
2021/12/11 09:54:30;;;;;;;71.20;29.05;;;3.80;99.90;;;;;;5053250;28;20029;-75
2021/12/11 09:57:04;;;;;;;71.00;29.58;;;3.80;99.90;;;;;;5049864;28;20036;-75
2021/12/11 09:59:33;;;;;;;67.90;28.45;;;3.80;99.90;;;;;;5053288;28;20025;-75
2021/12/11 10:02:04;;;;;;;71.20;28.77;;;3.80;99.90;;;;;;5052602;28;20029;-75
2021/12/11 10:04:37;;;;;;;69.22;29.20;;;3.70;99.90;;;;;;5047968;28;20036;-75
2021/12/11 10:09:42;;;;;;;68.10;29.80;;;3.60;99.90;;;;;;5046013;28;20480;-76
2021/12/11 10:12:18;;;;;;;68.47;30.33;;;3.60;99.90;;;;;;5050591;28;20086;-75
2021/12/11 10:14:48;;;;;;;67.95;29.88;;;3.60;99.90;;;;;;5054530;28;20021;-75
2021/12/11 10:17:21;;;;;;;68.05;30.60;;;3.70;99.90;;;;;;5053562;28;20021;-75
2021/12/11 10:19:51;;;;;;;70.15;29.95;;;3.70;99.90;;;;;;5054672;28;20021;-75
2021/12/11 10:22:19;;;;;;;80.95;31.83;;;3.80;99.90;;;;;;5054250;28;20021;-75
2021/12/11 10:24:45;;;;;;;74.95;32.00;;;3.90;99.90;;;;;;5045707;28;20017;-75
2021/12/11 10:27:15;;;;;;;73.30;30.98;;;3.90;99.90;;;;;;5052913;28;20029;-75
2021/12/11 10:29:42;;;;;;;62.70;28.38;;;4.00;99.90;;;;;;5053861;28;20060;-75
2021/12/11 10:32:13;;;;;;;78.43;32.42;;;4.10;99.90;;;;;;5044735;28;20544;-75
2021/12/11 10:34:42;;;;;;;67.80;28.80;;;4.10;99.90;;;;;;5034302;28;20472;-75
2021/12/11 10:37:16;;;;;;;68.47;30.45;;;4.10;99.90;;;;;;5040565;28;20051;-75
2021/12/11 10:39:48;;;;;;;88.80;30.95;;;4.10;99.90;;;;;;5047906;28;20028;-75
2021/12/11 10:42:14;;;;;;;70.45;29.40;;;4.10;99.90;;;;;;5052718;28;20056;-75
2021/12/11 10:44:43;;;;;;;155.27;30.30;;;4.10;99.90;;;;;;5054081;28;20033;-75
2021/12/11 10:47:14;;;;;;;99.82;32.15;;;4.10;99.90;;;;;;5053780;28;20048;-75
2021/12/11 10:49:42;;;;;;;77.78;31.25;;;4.10;99.90;;;;;;5053635;28;20025;-75
2021/12/11 10:52:19;;;;;;;96.50;33.63;;;4.10;99.90;;;;;;5053519;28;20052;-75
2021/12/11 10:54:48;;;;;;;85.22;32.50;;;4.10;99.90;;;;;;5033543;28;20029;-75
2021/12/11 10:57:16;;;;;;;114.85;33.65;;;4.20;99.90;;;;;;5048804;28;20108;-75
2021/12/11 10:59:45;;;;;;;120.13;34.15;;;4.20;99.90;;;;;;5052528;28;20112;-76
2021/12/11 11:02:15;;;;;;;206.55;33.75;;;4.20;99.90;;;;;;5054010;28;20426;-75
2021/12/11 11:04:45;;;;;;;253.20;36.92;;;4.20;99.90;;;;;;5054303;28;20021;-75
2021/12/11 11:07:11;;;;;;;291.42;36.80;;;4.20;99.90;;;;;;5053567;28;20029;-75
2021/12/11 11:09:38;;;;;;;282.67;33.38;;;4.10;99.90;;;;;;5053649;28;20033;-75
2021/12/11 11:12:07;;;;;;;245.65;38.83;;;4.20;99.90;;;;;;5053805;28;20433;-75
2021/12/11 11:14:34;;;;;;;288.48;37.72;;;4.20;99.90;;;;;;5053584;28;20025;-75
2021/12/11 11:17:05;;;;;;;220.25;35.25;;;4.20;99.90;;;;;;5046046;28;20368;-75
2021/12/11 11:19:34;;;;;;;308.60;37.15;;;4.30;99.90;;;;;;5052530;28;20029;-75
2021/12/11 11:22:03;;;;;;;180.80;30.50;;;4.30;99.90;;;;;;5052472;28;20024;-76
2021/12/11 11:24:34;;;;;;;215.52;29.60;;;4.20;99.90;;;;;;5051835;28;20058;-76
2021/12/11 11:27:01;;;;;;;261.90;32.22;;;4.20;99.90;;;;;;5052239;28;20036;-75
2021/12/11 11:29:27;;;;;;;280.65;32.28;;;4.20;99.90;;;;;;5048516;28;20411;-75
2021/12/11 11:31:57;;;;;;;128.75;29.50;;;4.30;99.90;;;;;;5048677;28;20417;-73
2021/12/11 11:34:26;;;;;;;152.50;29.40;;;4.30;99.90;;;;;;5051005;28;20041;-73
2021/12/11 11:36:55;;;;;;;140.88;28.25;;;4.40;99.90;;;;;;5045696;28;20017;-75
2021/12/11 11:39:22;;;;;;;133.90;29.83;;;4.40;99.90;;;;;;5048398;28;20021;-75
2021/12/11 11:41:53;;;;;;;127.85;30.90;;;4.40;99.90;;;;;;5052799;28;20384;-75
2021/12/11 11:44:21;;;;;;;151.02;28.83;;;4.50;99.90;;;;;;5052486;28;20029;-75
2021/12/11 11:46:49;;;;;;;116.97;30.52;;;4.60;99.90;;;;;;5039584;28;20033;-75
2021/12/11 11:49:16;;;;;;;180.40;32.10;;;4.60;99.90;;;;;;5048562;28;20112;-75
2021/12/11 11:51:49;;;;;;;149.98;31.35;;;4.70;99.90;;;;;;5052383;28;20502;-76
2021/12/11 11:54:17;;;;;;;121.85;31.50;;;4.80;99.90;;;;;;5052124;28;20028;-76
2021/12/11 11:56:53;;;;;;;110.13;31.30;;;4.80;99.90;;;;;;5059957;28;20498;-76
2021/12/11 11:59:19;;;;;;;97.22;33.33;;;4.80;99.90;;;;;;5050685;28;20025;-76
2021/12/11 12:01:51;;;;;;;95.65;34.35;;;4.90;99.90;;;;;;5052347;28;20071;-76
2021/12/11 12:04:19;;;;;;;88.90;32.00;;;5.00;99.90;;;;;;5039011;28;20021;-77
2021/12/11 12:06:48;;;;;;;108.43;37.67;;;5.00;99.90;;;;;;5049647;28;20089;-76
2021/12/11 12:09:15;;;;;;;96.72;35.63;;;5.10;99.90;;;;;;5046321;28;20060;-76
2021/12/11 12:11:41;;;;;;;102.97;34.83;;;5.00;99.90;;;;;;5050661;28;20112;-76
2021/12/11 12:14:11;;;;;;;99.53;33.10;;;5.00;99.90;;;;;;5053239;28;20427;-76
2021/12/11 12:16:41;;;;;;;78.55;29.40;;;5.00;99.90;;;;;;5035040;28;20030;-76
2021/12/11 12:19:07;;;;;;;68.95;25.48;;;5.00;99.90;;;;;;5036289;28;20464;-76
2021/12/11 12:21:35;;;;;;;74.85;26.45;;;5.00;99.90;;;;;;5047224;28;20135;-77
2021/12/11 12:24:01;;;;;;;83.47;29.73;;;5.00;99.90;;;;;;5052711;28;20489;-77
2021/12/11 12:26:28;;;;;;;75.32;26.60;;;5.00;99.90;;;;;;5048274;28;20033;-77
2021/12/11 12:28:56;;;;;;;67.15;27.80;;;5.10;99.90;;;;;;5047506;28;20021;-77
2021/12/11 12:31:29;;;;;;;64.18;24.63;;;5.10;99.90;;;;;;5031342;28;20464;-77
2021/12/11 12:33:55;;;;;;;60.67;25.88;;;5.10;99.90;;;;;;5046539;28;20040;-77
2021/12/11 12:36:21;;;;;;;62.67;23.83;;;5.10;99.90;;;;;;5068014;28;20029;-77
2021/12/11 12:38:50;;;;;;;64.43;25.80;;;5.10;99.90;;;;;;5053638;28;20033;-77
2021/12/11 12:41:20;;;;;;;62.88;24.48;;;5.00;99.90;;;;;;5045244;28;20025;-77
2021/12/11 12:44:16;;;;;;;84.20;25.15;;;5.00;99.90;;;;;;5033568;28;20206;-77
2021/12/11 12:46:45;;;;;;;79.28;27.75;;;5.00;99.90;;;;;;5035201;28;20017;-77
2021/12/11 12:49:11;;;;;;;72.88;26.45;;;5.00;99.90;;;;;;5032322;28;20036;-77
2021/12/11 12:51:37;;;;;;;93.40;28.15;;;5.00;99.90;;;;;;5045608;28;20037;-77
2021/12/11 12:54:05;;;;;;;70.53;27.17;;;5.00;99.90;;;;;;5040877;28;20029;-77
2021/12/11 12:56:45;;;;;;;70.65;26.88;;;5.00;99.90;;;;;;5032664;28;20112;-78
2021/12/11 12:59:17;;;;;;;87.63;27.85;;;5.00;99.90;;;;;;5033558;28;20022;-78
2021/12/11 13:01:52;;;;;;;99.07;30.63;;;5.10;99.90;;;;;;5042576;28;20082;-78
2021/12/11 13:04:23;;;;;;;71.40;28.58;;;5.10;99.90;;;;;;5052893;28;20025;-77
2021/12/11 13:06:55;;;;;;;102.03;29.20;;;5.20;99.90;;;;;;5052631;28;20025;-77
2021/12/11 13:09:27;;;;;;;99.13;31.45;;;5.30;99.90;;;;;;5047214;28;20030;-77